Terminal Aerodrome Forecast
Issued by NWS

Home | Current Version | Previous Version | Text Only | Print | Product List | Glossary On
Versions: 1 2 3 4 5 6 7 8 9 10 11 12 13 14 15
000
FTUS45 KRIW 181700
TAFRKS
TAF
KRKS 181720Z 1818/1918 25010KT P6SM SCT045
     FM190600 24006KT P6SM VCFG SCT025=

USA.gov is the U.S. government's official web portal to all federal, state and local government web resources and services.